Time,TemperatureF,DewpointF,PressureIn,WindDirection,WindDirectionDegrees,WindSpeedMPH,WindSpeedGustMPH,Humidity,HourlyPrecipIn,Conditions,Clouds,dailyrainin,SoftwareType,DateUTC
2013-06-03 00:02:00,52.0,50.0,-100.00,West,275,0.0,0.0,92,0.00,,,-99.99,,2013-06-03 05:02:00,
2013-06-03 00:12:00,52.0,50.0,-100.00,West,275,0.0,0.0,93,0.00,,,-99.99,,2013-06-03 05:12:00,
2013-06-03 00:22:00,51.0,50.0,-100.00,West,275,0.0,0.0,93,0.00,,,-99.99,,2013-06-03 05:22:00,
2013-06-03 00:32:00,51.0,50.0,-100.00,West,275,0.0,1.0,94,0.00,,,-99.99,,2013-06-03 05:32:00,
2013-06-03 00:42:00,51.0,49.0,-100.00,West,275,0.0,0.0,94,0.00,,,-99.99,,2013-06-03 05:42:00,
2013-06-03 00:52:00,51.0,49.0,-100.00,West,275,0.0,0.0,94,0.00,,,-99.99,,2013-06-03 05:52:00,
2013-06-03 01:02:00,51.0,49.0,-100.00,West,275,0.0,0.0,94,0.00,,,-99.99,,2013-06-03 06:02:00,
2013-06-03 01:12:00,51.0,49.0,-100.00,SE,135,2.0,2.0,94,0.00,,,-99.99,,2013-06-03 06:12:00,
2013-06-03 01:22:00,51.0,50.0,-100.00,ESE,110,0.0,1.0,95,0.00,,,-99.99,,2013-06-03 06:22:00,
2013-06-03 01:32:00,51.0,49.0,-100.00,SE,140,1.0,2.0,95,0.00,,,-99.99,,2013-06-03 06:32:00,
2013-06-03 01:42:00,51.0,49.0,-100.00,SE,140,1.0,2.0,95,0.00,,,-99.99,,2013-06-03 06:42:00,
2013-06-03 01:52:00,51.0,49.0,-100.00,SE,140,0.0,0.0,95,0.00,,,-99.99,,2013-06-03 06:52:00,
2013-06-03 02:02:00,51.0,49.0,-100.00,SE,140,0.0,0.0,95,0.00,,,-99.99,,2013-06-03 07:02:00,
2013-06-03 02:12:00,50.0,49.0,-100.00,SW,230,0.0,1.0,95,0.00,,,-99.99,,2013-06-03 07:12:00,
2013-06-03 02:22:00,50.0,49.0,-100.00,SW,230,0.0,0.0,95,0.00,,,-99.99,,2013-06-03 07:22:00,
2013-06-03 02:32:00,50.0,49.0,-100.00,SW,230,0.0,0.0,95,0.00,,,-99.99,,2013-06-03 07:32:00,
2013-06-03 02:42:00,50.0,49.0,-100.00,SW,230,0.0,0.0,95,0.00,,,-99.99,,2013-06-03 07:42:00,
2013-06-03 02:52:00,50.0,49.0,-100.00,SW,230,1.0,1.0,95,0.00,,,-99.99,,2013-06-03 07:52:00,
2013-06-03 03:02:00,49.0,48.0,-100.00,SW,230,0.0,0.0,95,0.00,,,-99.99,,2013-06-03 08:02:00,
2013-06-03 03:12:00,49.0,48.0,-100.00,SW,230,0.0,0.0,95,0.00,,,-99.99,,2013-06-03 08:12:00,
2013-06-03 03:22:00,49.0,48.0,-100.00,SW,230,0.0,0.0,95,0.00,,,-99.99,,2013-06-03 08:22:00,
2013-06-03 03:32:00,49.0,48.0,-100.00,SW,230,0.0,0.0,95,0.00,,,-99.99,,2013-06-03 08:32:00,
2013-06-03 03:42:00,49.0,48.0,-100.00,SW,230,0.0,1.0,95,0.00,,,-99.99,,2013-06-03 08:42:00,
2013-06-03 03:52:00,49.0,48.0,-100.00,WNW,290,0.0,1.0,95,0.00,,,-99.99,,2013-06-03 08:52:00,
2013-06-03 04:02:00,49.0,48.0,-100.00,WNW,290,0.0,1.0,95,0.00,,,-99.99,,2013-06-03 09:02:00,
2013-06-03 04:12:00,49.0,48.0,-100.00,WNW,290,1.0,1.0,95,0.00,,,-99.99,,2013-06-03 09:12:00,
2013-06-03 04:22:00,49.0,48.0,-100.00,West,270,0.0,1.0,95,0.00,,,-99.99,,2013-06-03 09:22:00,
2013-06-03 04:33:00,49.0,48.0,-100.00,NNW,335,1.0,1.0,95,0.00,,,-99.99,,2013-06-03 09:33:00,
2013-06-03 04:42:00,49.0,48.0,-100.00,NNW,335,1.0,1.0,95,0.00,,,-99.99,,2013-06-03 09:42:00,
2013-06-03 04:52:00,49.0,47.0,-100.00,North,5,0.0,1.0,95,0.00,,,-99.99,,2013-06-03 09:52:00,
2013-06-03 05:03:00,49.0,47.0,-100.00,North,5,0.0,1.0,95,0.00,,,-99.99,,2013-06-03 10:03:00,
2013-06-03 05:12:00,49.0,47.0,-100.00,North,0,0.0,1.0,95,0.00,,,-99.99,,2013-06-03 10:12:00,
2013-06-03 05:22:00,49.0,47.0,-100.00,North,355,0.0,1.0,95,0.00,,,-99.99,,2013-06-03 10:22:00,
2013-06-03 05:33:00,48.0,47.0,-100.00,SW,230,0.0,2.0,95,0.00,,,-99.99,,2013-06-03 10:33:00,
2013-06-03 05:42:00,48.0,47.0,-100.00,SW,230,0.0,2.0,95,0.00,,,-99.99,,2013-06-03 10:42:00,
2013-06-03 05:52:00,48.0,47.0,-100.00,SW,230,0.0,2.0,95,0.00,,,-99.99,,2013-06-03 10:52:00,
2013-06-03 06:02:00,47.0,46.0,-100.00,SW,225,1.0,1.0,95,0.00,,,-99.99,,2013-06-03 11:02:00,
2013-06-03 06:12:00,47.0,46.0,-100.00,SW,225,1.0,1.0,95,0.00,,,-99.99,,2013-06-03 11:12:00,
2013-06-03 06:22:00,48.0,46.0,-100.00,SW,225,0.0,1.0,95,0.00,,,-99.99,,2013-06-03 11:22:00,
2013-06-03 06:32:00,49.0,48.0,-100.00,SW,225,0.0,0.0,95,0.00,,,-99.99,,2013-06-03 11:32:00,
2013-06-03 06:42:00,50.0,48.0,-100.00,West,270,1.0,1.0,95,0.00,,,-99.99,,2013-06-03 11:42:00,
2013-06-03 06:52:00,50.0,48.0,-100.00,West,270,1.0,1.0,95,0.00,,,-99.99,,2013-06-03 11:52:00,
2013-06-03 07:02:00,51.0,50.0,-100.00,WNW,290,1.0,2.0,95,0.00,,,-99.99,,2013-06-03 12:02:00,
2013-06-03 07:12:00,52.0,51.0,-100.00,WNW,300,1.0,2.0,95,0.00,,,-99.99,,2013-06-03 12:12:00,
2013-06-03 07:22:00,53.0,51.0,-100.00,NW,310,2.0,3.0,95,0.00,,,-99.99,,2013-06-03 12:22:00,
2013-06-03 07:32:00,55.0,53.0,-100.00,NW,305,0.0,2.0,91,0.00,,,-99.99,,2013-06-03 12:32:00,
2013-06-03 07:42:00,55.0,53.0,-100.00,NW,305,0.0,2.0,91,0.00,,,-99.99,,2013-06-03 12:42:00,
2013-06-03 07:52:00,57.0,52.0,-100.00,NNW,340,1.0,1.0,82,0.00,,,-99.99,,2013-06-03 12:52:00,
2013-06-03 08:02:00,59.0,50.0,-100.00,North,350,0.0,1.0,71,0.00,,,-99.99,,2013-06-03 13:02:00,
2013-06-03 08:12:00,59.0,50.0,-100.00,North,350,0.0,1.0,71,0.00,,,-99.99,,2013-06-03 13:12:00,
2013-06-03 08:22:00,60.0,48.0,-100.00,North,5,0.0,2.0,63,0.00,,,-99.99,,2013-06-03 13:22:00,
2013-06-03 08:32:00,62.0,48.0,-100.00,North,355,1.0,2.0,60,0.00,,,-99.99,,2013-06-03 13:32:00,
2013-06-03 08:42:00,63.0,48.0,-100.00,North,355,1.0,2.0,57,0.00,,,-99.99,,2013-06-03 13:42:00,
2013-06-03 08:53:00,64.0,47.0,-100.00,NNE,15,1.0,2.0,54,0.00,,,-99.99,,2013-06-03 13:53:00,
2013-06-03 09:02:00,64.0,47.0,-100.00,NNE,15,1.0,2.0,54,0.00,,,-99.99,,2013-06-03 14:02:00,
2013-06-03 09:12:00,64.0,47.0,-100.00,North,10,2.0,2.0,53,0.00,,,-99.99,,2013-06-03 14:12:00,
2013-06-03 09:22:00,65.0,47.0,-100.00,WNW,300,1.0,2.0,52,0.00,,,-99.99,,2013-06-03 14:22:00,
2013-06-03 09:32:00,66.0,46.0,-100.00,NW,305,0.0,4.0,48,0.00,,,-99.99,,2013-06-03 14:32:00,
2013-06-03 09:42:00,65.0,47.0,-100.00,East,80,2.0,4.0,51,0.00,,,-99.99,,2013-06-03 14:42:00,
2013-06-03 09:52:00,66.0,44.0,-100.00,East,95,3.0,7.0,45,0.00,,,-99.99,,2013-06-03 14:52:00,
2013-06-03 10:02:00,66.0,44.0,-100.00,East,95,3.0,7.0,45,0.00,,,-99.99,,2013-06-03 15:02:00,
2013-06-03 10:12:00,67.0,43.0,-100.00,ESE,105,5.0,7.0,41,0.00,,,-99.99,,2013-06-03 15:12:00,
2013-06-03 10:22:00,67.0,43.0,-100.00,South,170,2.0,9.0,40,0.00,,,-99.99,,2013-06-03 15:22:00,
2013-06-03 10:33:00,68.0,43.0,-100.00,SSE,155,3.0,9.0,40,0.00,,,-99.99,,2013-06-03 15:33:00,
2013-06-03 10:43:00,68.0,43.0,-100.00,SSE,155,3.0,9.0,40,0.00,,,-99.99,,2013-06-03 15:43:00,
2013-06-03 10:53:00,66.0,41.0,-100.00,East,90,5.0,9.0,39,0.00,,,-99.99,,2013-06-03 15:53:00,
2013-06-03 11:03:00,67.0,43.0,-100.00,ESE,115,6.0,9.0,41,0.00,,,-99.99,,2013-06-03 16:03:00,
2013-06-03 11:13:00,67.0,43.0,-100.00,ESE,115,6.0,9.0,41,0.00,,,-99.99,,2013-06-03 16:13:00,
2013-06-03 11:23:00,67.0,43.0,-100.00,ESE,115,6.0,9.0,41,0.00,,,-99.99,,2013-06-03 16:23:00,
2013-06-03 11:33:00,67.0,45.0,-100.00,ENE,70,3.0,11.0,44,0.00,,,-99.99,,2013-06-03 16:33:00,
2013-06-03 11:42:00,67.0,45.0,-100.00,ENE,70,3.0,11.0,44,0.00,,,-99.99,,2013-06-03 16:42:00,
2013-06-03 11:53:00,67.0,44.0,-100.00,East,80,6.0,14.0,44,0.00,,,-99.99,,2013-06-03 16:53:00,
2013-06-03 12:02:00,67.0,44.0,-100.00,East,80,6.0,14.0,44,0.00,,,-99.99,,2013-06-03 17:02:00,
2013-06-03 12:12:00,67.0,44.0,-100.00,East,90,7.0,11.0,43,0.00,,,-99.99,,2013-06-03 17:12:00,
2013-06-03 12:22:00,67.0,44.0,-100.00,ENE,75,6.0,11.0,44,0.00,,,-99.99,,2013-06-03 17:22:00,
2013-06-03 12:33:00,67.0,46.0,-100.00,ESE,105,6.0,12.0,46,0.00,,,-99.99,,2013-06-03 17:33:00,
2013-06-03 12:42:00,68.0,45.0,-100.00,East,80,4.0,9.0,44,0.00,,,-99.99,,2013-06-03 17:42:00,
2013-06-03 12:52:00,69.0,46.0,-100.00,SE,140,7.0,11.0,44,0.00,,,-99.99,,2013-06-03 17:52:00,
2013-06-03 13:02:00,69.0,46.0,-100.00,SE,140,7.0,11.0,44,0.00,,,-99.99,,2013-06-03 18:02:00,
2013-06-03 13:12:00,68.0,45.0,-100.00,East,85,3.0,9.0,43,0.00,,,-99.99,,2013-06-03 18:12:00,
2013-06-03 13:22:00,68.0,45.0,-100.00,East,90,5.0,12.0,43,0.00,,,-99.99,,2013-06-03 18:22:00,
2013-06-03 13:32:00,69.0,44.0,-100.00,ENE,65,3.0,11.0,41,0.00,,,-99.99,,2013-06-03 18:32:00,
2013-06-03 13:42:00,69.0,44.0,-100.00,ENE,65,3.0,11.0,41,0.00,,,-99.99,,2013-06-03 18:42:00,
2013-06-03 13:52:00,70.0,46.0,-100.00,ESE,110,6.0,10.0,41,0.00,,,-99.99,,2013-06-03 18:52:00,
2013-06-03 14:03:00,70.0,46.0,-100.00,ESE,110,6.0,10.0,41,0.00,,,-99.99,,2013-06-03 19:03:00,
2013-06-03 14:12:00,70.0,46.0,-100.00,East,100,9.0,12.0,43,0.00,,,-99.99,,2013-06-03 19:12:00,
2013-06-03 14:22:00,70.0,47.0,-100.00,SE,130,5.0,9.0,44,0.00,,,-99.99,,2013-06-03 19:22:00,
2013-06-03 14:32:00,72.0,47.0,-100.00,SE,140,6.0,10.0,40,0.00,,,-99.99,,2013-06-03 19:32:00,
2013-06-03 14:42:00,72.0,47.0,-100.00,SE,140,6.0,10.0,40,0.00,,,-99.99,,2013-06-03 19:42:00,
2013-06-03 14:52:00,70.0,46.0,-100.00,ENE,65,4.0,11.0,41,0.00,,,-99.99,,2013-06-03 19:52:00,
2013-06-03 15:02:00,71.0,47.0,-100.00,East,95,9.0,12.0,42,0.00,,,-99.99,,2013-06-03 20:02:00,
2013-06-03 15:12:00,71.0,46.0,-100.00,East,95,7.0,16.0,41,0.00,,,-99.99,,2013-06-03 20:12:00,
2013-06-03 15:22:00,71.0,46.0,-100.00,East,95,7.0,16.0,41,0.00,,,-99.99,,2013-06-03 20:22:00,
2013-06-03 15:32:00,71.0,46.0,-100.00,East,85,6.0,13.0,41,0.00,,,-99.99,,2013-06-03 20:32:00,
2013-06-03 15:42:00,72.0,47.0,-100.00,East,95,8.0,12.0,41,0.00,,,-99.99,,2013-06-03 20:42:00,
2013-06-03 15:52:00,71.0,47.0,-100.00,East,100,10.0,16.0,42,0.00,,,-99.99,,2013-06-03 20:52:00,
2013-06-03 16:02:00,71.0,47.0,-100.00,East,100,10.0,16.0,42,0.00,,,-99.99,,2013-06-03 21:02:00,
2013-06-03 16:12:00,72.0,47.0,-100.00,SSE,160,9.0,14.0,40,0.00,,,-99.99,,2013-06-03 21:12:00,
2013-06-03 16:22:00,72.0,47.0,-100.00,South,175,5.0,12.0,41,0.00,,,-99.99,,2013-06-03 21:22:00,
2013-06-03 16:33:00,72.0,47.0,-100.00,East,100,8.0,12.0,40,0.00,,,-99.99,,2013-06-03 21:33:00,
2013-06-03 16:43:00,72.0,47.0,-100.00,East,100,8.0,12.0,40,0.00,,,-99.99,,2013-06-03 21:43:00,
2013-06-03 16:52:00,73.0,48.0,-100.00,SE,140,6.0,11.0,41,0.00,,,-99.99,,2013-06-03 21:52:00,
2013-06-03 17:03:00,72.0,47.0,-100.00,SE,145,11.0,14.0,40,0.00,,,-99.99,,2013-06-03 22:03:00,
2013-06-03 17:12:00,72.0,47.0,-100.00,East,95,7.0,13.0,40,0.00,,,-99.99,,2013-06-03 22:12:00,
2013-06-03 17:22:00,72.0,47.0,-100.00,East,95,7.0,13.0,40,0.00,,,-99.99,,2013-06-03 22:22:00,
2013-06-03 17:32:00,73.0,47.0,-100.00,SE,145,9.0,12.0,39,0.00,,,-99.99,,2013-06-03 22:32:00,
2013-06-03 17:42:00,73.0,47.0,-100.00,SE,145,9.0,12.0,39,0.00,,,-99.99,,2013-06-03 22:42:00,
2013-06-03 17:52:00,73.0,47.0,-100.00,SE,130,6.0,12.0,39,0.00,,,-99.99,,2013-06-03 22:52:00,
2013-06-03 18:02:00,73.0,48.0,-100.00,SE,125,7.0,12.0,40,0.00,,,-99.99,,2013-06-03 23:02:00,
2013-06-03 18:12:00,73.0,48.0,-100.00,SE,125,7.0,12.0,40,0.00,,,-99.99,,2013-06-03 23:12:00,
2013-06-03 18:22:00,73.0,47.0,-100.00,SE,135,9.0,14.0,40,0.00,,,-99.99,,2013-06-03 23:22:00,
2013-06-03 18:32:00,72.0,46.0,-100.00,ESE,115,7.0,13.0,39,0.00,,,-99.99,,2013-06-03 23:32:00,
2013-06-03 18:42:00,72.0,47.0,-100.00,ESE,115,6.0,13.0,40,0.00,,,-99.99,,2013-06-03 23:42:00,
2013-06-03 18:52:00,71.0,46.0,-100.00,ESE,120,7.0,14.0,40,0.00,,,-99.99,,2013-06-03 23:52:00,
2013-06-03 19:02:00,71.0,46.0,-100.00,ESE,120,7.0,14.0,40,0.00,,,-99.99,,2013-06-04 00:02:00,
2013-06-03 19:12:00,71.0,46.0,-100.00,SSE,150,9.0,12.0,41,0.00,,,-99.99,,2013-06-04 00:12:00,
2013-06-03 19:22:00,71.0,46.0,-100.00,SE,125,7.0,13.0,40,0.00,,,-99.99,,2013-06-04 00:22:00,
2013-06-03 19:32:00,70.0,45.0,-100.00,ESE,120,9.0,12.0,40,0.00,,,-99.99,,2013-06-04 00:32:00,
2013-06-03 19:42:00,70.0,45.0,-100.00,ESE,120,9.0,12.0,40,0.00,,,-99.99,,2013-06-04 00:42:00,
2013-06-03 19:52:00,70.0,45.0,-100.00,ESE,115,5.0,14.0,41,0.00,,,-99.99,,2013-06-04 00:52:00,
2013-06-03 20:02:00,69.0,45.0,-100.00,ESE,120,9.0,14.0,42,0.00,,,-99.99,,2013-06-04 01:02:00,
2013-06-03 20:12:00,69.0,45.0,-100.00,ESE,120,9.0,14.0,42,0.00,,,-99.99,,2013-06-04 01:12:00,
2013-06-03 20:22:00,68.0,45.0,-100.00,SE,125,4.0,12.0,43,0.00,,,-99.99,,2013-06-04 01:22:00,
2013-06-03 20:32:00,68.0,45.0,-100.00,SE,140,6.0,9.0,45,0.00,,,-99.99,,2013-06-04 01:32:00,
2013-06-03 20:42:00,67.0,46.0,-100.00,SE,135,5.0,9.0,47,0.00,,,-99.99,,2013-06-04 01:42:00,
2013-06-03 20:53:00,66.0,46.0,-100.00,SE,130,5.0,7.0,49,0.00,,,-99.99,,2013-06-04 01:53:00,
2013-06-03 21:02:00,66.0,46.0,-100.00,SE,130,5.0,7.0,49,0.00,,,-99.99,,2013-06-04 02:02:00,
2013-06-03 21:12:00,65.0,47.0,-100.00,SE,125,4.0,7.0,52,0.00,,,-99.99,,2013-06-04 02:12:00,
2013-06-03 21:22:00,64.0,48.0,-100.00,ESE,115,4.0,7.0,55,0.00,,,-99.99,,2013-06-04 02:22:00,
2013-06-03 21:32:00,64.0,49.0,-100.00,ESE,115,4.0,7.0,58,0.00,,,-99.99,,2013-06-04 02:32:00,
2013-06-03 21:42:00,64.0,49.0,-100.00,ESE,115,4.0,7.0,58,0.00,,,-99.99,,2013-06-04 02:42:00,
2013-06-03 21:52:00,63.0,50.0,-100.00,ESE,105,4.0,6.0,62,0.00,,,-99.99,,2013-06-04 02:52:00,
2013-06-03 22:02:00,63.0,51.0,-100.00,East,95,5.0,7.0,64,0.00,,,-99.99,,2013-06-04 03:02:00,
2013-06-03 22:12:00,63.0,51.0,-100.00,East,95,5.0,7.0,64,0.00,,,-99.99,,2013-06-04 03:12:00,
2013-06-03 22:22:00,62.0,51.0,-100.00,East,100,6.0,7.0,66,0.00,,,-99.99,,2013-06-04 03:22:00,
2013-06-03 22:32:00,62.0,51.0,-100.00,ESE,105,7.0,9.0,66,0.00,,,-99.99,,2013-06-04 03:32:00,
2013-06-03 22:43:00,62.0,51.0,-100.00,ESE,115,6.0,9.0,67,0.00,,,-99.99,,2013-06-04 03:43:00,
2013-06-03 22:53:00,61.0,51.0,-100.00,ESE,115,6.0,10.0,68,0.00,,,-99.99,,2013-06-04 03:53:00,
2013-06-03 23:03:00,61.0,51.0,-100.00,ESE,115,6.0,10.0,68,0.00,,,-99.99,,2013-06-04 04:03:00,
2013-06-03 23:13:00,61.0,51.0,-100.00,ESE,110,4.0,8.0,69,0.00,,,-99.99,,2013-06-04 04:13:00,
2013-06-03 23:23:00,60.0,51.0,-100.00,SE,125,4.0,8.0,71,0.00,,,-99.99,,2013-06-04 04:23:00,
2013-06-03 23:33:00,61.0,52.0,-100.00,SE,125,5.0,10.0,72,0.00,,,-99.99,,2013-06-04 04:33:00,
2013-06-03 23:42:00,61.0,52.0,-100.00,SE,125,5.0,10.0,72,0.00,,,-99.99,,2013-06-04 04:42:00,
2013-06-03 23:53:00,60.0,51.0,-100.00,SE,135,5.0,9.0,72,0.00,,,-99.99,,2013-06-04 04:53:00,